Tiempo atmosférico en la estación meteorológica de Villarrobledo, Albacete (718 m.)



Fecha
DESCASC
Temp. máxima en grados centígrados (hora)
DESCASC
Temp. mínima en grados centígrados (hora)
DESCASC
Temp. media en grados centígrados
DESCASC
Racha de viento máxima en m/sg (hora)
DESCASC
Velocidad máxima media en intervalos de 10 minutos(hora)
DESCASC
Precipitaciones diarias en mm
DESCASC
Precipitaciones de 00:00 a 06:00 en mm
DESCASC
Precipitaciones de 06:00 a 12:00 en mm
DESCASC
Precipitaciones de 12:00 a 18:00 en mm
DESCASC
Precipitaciones de 18:00 a 24:00 en mm
DESCASC
10-11-2019 10.2 (13:30) 2.8 (00:00) 6.5 13.89 (13:30) 9.17 (14:10) 0 0 0 0 0
09-11-2019 13.7 (15:50) 1.5 (00:00) 7.6 14.17 (16:10) 8.33 (16:10) 4.6 0 0 0.4 4.2
08-11-2019 12.2 (15:50) 2.1 (00:00) 7.1 13.33 (13:50) 8.89 (12:40) 0.8 0.6 0.2 0 0
07-11-2019 15.4 (13:50) 5.3 (00:00) 10.3 13.61 (14:00) 7.5 (12:50) 1.2 0.2 0 0 1
06-11-2019 15.1 (14:30) 3.8 (00:00) 9.5 9.72 (15:00) 6.39 (15:00) 0 0 0 0 0
05-11-2019 13.8 (15:20) 7.5 (00:00) 10.7 15.28 (16:00) 9.72 (10:50) 0.4 0.4 0 0 0
04-11-2019 17.3 (15:40) 11.7 (00:00) 14.5 16.67 (14:00) 10.56 (16:30) 0.4 0 0 0 0.4
03-11-2019 17.4 (15:50) 11.9 (00:00) 14.6 20.83 (10:30) 12.22 (10:00) 0.4 0 0 0.4 0
02-11-2019 20.4 (14:30) 13.5 (00:00) 16.9 15.83 (14:10) 10 (16:40) 0.2 0 0 0 0.2
01-11-2019 21.7 (15:30) 13.9 (00:00) 17.8 13.61 (18:40) 8.33 (18:50) 0 0 0 0 0
31-10-2019 22.8 (14:00) 14.6 (23:59) 18.7 10.56 (13:50) 6.94 (14:50) 0 0 0 0 0
30-10-2019 23.2 (15:30) 7.8 (00:00) 15.5 6.39 (13:50) 3.89 (13:10) 0 0 0 0 0
29-10-2019 21.4 (12:50) 9.4 (00:00) 15.4 6.11 (13:10) 3.89 (13:40) 0 0 0 0 0
28-10-2019 23.2 (16:30) 8.9 (00:00) 16.1 7.5 (14:00) 4.44 (14:50) 0 0 0 0 0
27-10-2019 22.3 (16:00) 9.4 (00:00) 15.8 6.39 (07:30) 4.17 (11:50) 0 0 0 0 0
26-10-2019 26.9 (16:10) 5.4 (00:00) 16.1 4.72 (11:30) 3.06 (11:30) 0 0 0 0 0
25-10-2019 22.5 (15:50) 5 (00:00) 13.8 5.56 (15:10) 2.78 (14:10) 0 0 0 0 0
24-10-2019 16.6 (16:50) 8.2 (00:00) 12.4 8.89 (17:30) 6.11 (16:20) 0.4 0.4 0 0 0
23-10-2019 9.3 (12:00) 5.6 (00:00) 7.5 11.11 (16:10) 6.39 (16:10) 4.6 1.2 0 2.4 1
22-10-2019 11 (15:20) 7.5 (00:00) 9.3 10.28 (13:10) 6.11 (13:10) 0.6 0 0 0 0.6
21-10-2019 19.8 (15:50) 3.2 (00:00) 11.5 4.44 (15:00) 2.22 (15:20) 0 0 0 0 0
20-10-2019 15 (00:00) 7.6 (00:00) 11.3 14.72 (01:30) 8.06 (15:40) 6.4 6.4 0 0 0
19-10-2019 20.9 (16:40) 11.9 (00:00) 16.4 11.94 (16:40) 7.22 (16:50) 0 0 0 0 0
18-10-2019 23.2 (17:10) 11 (00:00) 17.1 10 (17:40) 6.67 (17:40) 0 0 0 0 0
17-10-2019 22.4 (16:40) 6 (00:00) 14.2 9.17 (12:20) 5.83 (13:20) 0 0 0 0 0
16-10-2019 20.6 (16:10) 4.1 (00:00) 12.4 7.22 (15:20) 3.89 (15:40) 0 0 0 0 0
15-10-2019 18.7 (16:40) 6.5 (00:00) 12.6 8.06 (11:40) 4.72 (11:30) 0.2 0 0.2 0 0

Gráficas

Temp. máximas Temp. mínimas Temp. medias Precipitaciones Rachas de viento máximas Velocidades máximas media en intervalos de 10 minutos

Datos horarios

Fecha y hora oficial Temperatura (ºC) Velocidad del viento (km/h) Dirección del viento Racha (km/h) Dirección de racha Precipitación (mm) Presión (hPa) Tendencia (hPa) Humedad (%)
2019-11-13 23:00:00 -- -- -- -- -- -- -- -- --
2019-11-13 22:00:00 10.7 14 Sudoeste 26 Sudoeste 0 -- -- 81
2019-11-13 21:00:00 11.3 14 Oeste 22 Oeste 0 -- -- 79
2019-11-13 20:00:00 11.9 12 Oeste 17 Oeste 0 -- -- 70
2019-11-13 19:00:00 12.1 9 Oeste 12 Sudoeste 0 -- -- 73
2019-11-13 18:00:00 13 6 Oeste 22 Oeste 0 -- -- 69
2019-11-13 17:00:00 15.1 10 Noroeste 27 Oeste 0 -- -- 60
2019-11-13 16:00:00 16.1 18 Oeste 32 Noroeste 0 -- -- 55
2019-11-13 15:00:00 17.2 17 Noroeste 33 Noroeste 0 -- -- 52
2019-11-13 14:00:00 15.4 22 Noroeste 42 Oeste 0.2 -- -- 61
2019-11-13 13:00:00 15.4 27 Oeste 49 Oeste 0 -- -- 70
2019-11-13 12:00:00 14.1 30 Oeste 55 Sudoeste 0 -- -- 78
2019-11-13 11:00:00 13.2 31 Oeste 50 Oeste 0 -- -- 85
2019-11-13 10:00:00 10.9 28 Sudoeste 50 Sudoeste 0 -- -- 92
2019-11-13 09:00:00 10.2 27 Oeste 53 Oeste 0.4 -- -- 92
2019-11-13 08:00:00 10.2 35 Oeste 56 Oeste 0 -- -- 90
2019-11-13 07:00:00 10 34 Sudoeste 55 Sudoeste 0 -- -- 89
2019-11-13 06:00:00 9.8 29 Sudoeste 57 Sudoeste 0.2 -- -- 89
2019-11-13 05:00:00 9.4 28 Sudoeste 51 Sudoeste 0 -- -- 91
2019-11-13 04:00:00 8.2 27 Sudoeste 44 Sudoeste 1.6 -- -- 91
2019-11-13 03:00:00 8 31 Sudoeste 45 Sudoeste 0.4 -- -- 87
2019-11-13 02:00:00 7.8 30 Sudoeste 49 Sudoeste 0 -- -- 85
2019-11-13 01:00:00 8.5 21 Sudoeste 37 Sudoeste 0 -- -- 76
2019-11-13 00:00:00 8.5 16 Sudoeste 31 Sudoeste 0 -- -- 70
2019-11-12 23:00:00 7.6 17 Sudoeste 35 Sudoeste 0 -- -- 77
2019-11-12 22:00:00 7.4 15 Sudoeste 31 Sudoeste 0 -- -- 78
2019-11-12 21:00:00 7.2 16 Oeste 24 Oeste 0 -- -- 74
2019-11-12 20:00:00 6.7 8 Sudoeste 15 Oeste 0 -- -- 67
2019-11-12 19:00:00 8.3 9 Oeste 23 Oeste 0 -- -- 61
2019-11-12 18:00:00 10 15 Oeste 32 Oeste 0 -- -- 54
2019-11-12 17:00:00 11.5 21 Oeste 33 Oeste 0 -- -- 48
2019-11-12 16:00:00 12.3 20 Oeste 35 Oeste 0 -- -- 47
2019-11-12 15:00:00 13.4 20 Oeste 35 Oeste 0 -- -- 43
2019-11-12 14:00:00 12.9 22 Oeste 34 Oeste 0 -- -- 46
2019-11-12 13:00:00 12.3 19 Noroeste 32 Noroeste 0 -- -- 50
2019-11-12 12:00:00 10.9 15 Noroeste 23 Noroeste 0 -- -- 58
2019-11-12 11:00:00 9.1 12 Oeste 28 Oeste 0 -- -- 65
2019-11-12 10:00:00 6.6 15 Oeste 23 Sudoeste 0 -- -- 77
2019-11-12 09:00:00 3.3 11 Oeste 15 Oeste 0 -- -- 90
2019-11-12 08:00:00 2.8 8 Oeste 14 Oeste 0 -- -- 90
2019-11-12 07:00:00 3 10 Oeste 18 Oeste 0 -- -- 91
2019-11-12 06:00:00 3.1 10 Oeste 16 Oeste 0 -- -- 89
2019-11-12 05:00:00 3.6 9 Oeste 16 Oeste 0 -- -- 84
2019-11-12 04:00:00 3.5 8 Oeste 14 Oeste 0 -- -- 84
2019-11-12 03:00:00 3.9 5 Oeste 17 Oeste 0 -- -- 82
2019-11-12 02:00:00 5.3 10 Noroeste 19 Noroeste 0 -- -- 75
2019-11-12 01:00:00 4 0 Calma 10 Oeste 0 -- -- 91
2019-11-12 00:00:00 4.8 3 Sudoeste 9 Oeste 0 -- -- 91
2019-11-11 23:00:00 5.8 3 Sudoeste 14 Oeste 0 -- -- 92
2019-11-11 22:00:00 6.8 10 Oeste 18 Oeste 0 -- -- 91
2019-11-11 21:00:00 6.8 9 Oeste 16 Oeste 0 -- -- 87
2019-11-11 20:00:00 7.3 9 Oeste 15 Oeste 0 -- -- 83
2019-11-11 19:00:00 8.7 10 Oeste 18 Oeste 0 -- -- 78
2019-11-11 18:00:00 9.7 12 Oeste 29 Oeste 0 -- -- 77
2019-11-11 17:00:00 9.7 19 Oeste 30 Oeste 0 -- -- 77
2019-11-11 16:00:00 10.4 20 Oeste 30 Oeste 0 -- -- 73
2019-11-11 15:00:00 9.6 16 Oeste 25 Oeste 0 -- -- 73
2019-11-11 14:00:00 9.1 18 Oeste 26 Oeste 0 -- -- 71
2019-11-11 13:00:00 8 17 Oeste 30 Oeste 0 -- -- 74
2019-11-11 12:00:00 7.9 16 Oeste 32 Oeste 0 -- -- 73
2019-11-11 11:00:00 6.6 17 Oeste 26 Oeste 0 -- -- 80
2019-11-11 10:00:00 5.5 14 Oeste 22 Oeste 0 -- -- 84
2019-11-11 09:00:00 4.4 11 Sudoeste 23 Oeste 0 -- -- 86
2019-11-11 08:00:00 3.9 11 Oeste 19 Sudoeste 0 -- -- 86
2019-11-11 07:00:00 3.8 9 Sudoeste 22 Oeste 0 -- -- 86
2019-11-11 06:00:00 3.7 16 Oeste 24 Oeste 0 -- -- 87
2019-11-11 05:00:00 2.6 7 Sudoeste 14 Sudoeste 0 -- -- 91
2019-11-11 04:00:00 1.7 9 Sudoeste 15 Sur 0 -- -- 91
2019-11-11 03:00:00 1.5 4 Sur 13 Sudoeste 0 -- -- 89
2019-11-11 02:00:00 2.5 6 Sudoeste 17 Oeste 0 -- -- 88
2019-11-11 01:00:00 2.3 8 Sudoeste 19 Oeste 0 -- -- 89
2019-11-11 00:00:00 2.9 15 Oeste 26 Oeste 0 -- -- 88
2019-11-10 23:00:00 3.9 11 Oeste 22 Oeste 0 -- -- 83
2019-11-10 22:00:00 4.3 12 Noroeste 28 Oeste 0 -- -- 84
2019-11-10 21:00:00 5.2 19 Oeste 29 Oeste 0 -- -- 80
2019-11-10 20:00:00 5.8 13 Oeste 27 Oeste 0 -- -- 76
2019-11-10 19:00:00 6.4 17 Oeste 27 Oeste 0 -- -- 71
2019-11-10 18:00:00 7.6 16 Oeste 47 Oeste 0 -- -- 64
2019-11-10 17:00:00 9.4 21 Oeste 42 Oeste 0 -- -- 56
2019-11-10 16:00:00 9.1 27 Oeste 48 Oeste 0 -- -- 54
2019-11-10 15:00:00 9.6 29 Oeste 48 Oeste 0 -- -- 53
2019-11-10 14:00:00 9.9 30 Oeste 50 Oeste 0 -- -- 53
2019-11-10 13:00:00 10.1 27 Oeste 46 Oeste 0 -- -- 54
2019-11-10 12:00:00 9.8 25 Oeste 41 Oeste 0 -- -- 54
2019-11-10 11:00:00 8.7 21 Oeste 33 Oeste 0 -- -- 59
2019-11-10 10:00:00 7.3 16 Oeste 28 Oeste 0 -- -- 66
2019-11-10 09:00:00 5.4 13 Oeste 28 Oeste 0 -- -- 72
2019-11-10 08:00:00 4.9 15 Noroeste 30 Oeste 0 -- -- 75
2019-11-10 07:00:00 5.6 17 Oeste 30 Oeste 0 -- -- 77
2019-11-10 06:00:00 6.5 15 Oeste 28 Oeste 0 -- -- 81
2019-11-10 05:00:00 7.3 17 Oeste 30 Noroeste 0 -- -- 77
2019-11-10 04:00:00 7.7 16 Oeste 30 Oeste 0 -- -- 88
2019-11-10 03:00:00 8.2 20 Oeste 42 Sudoeste 0 -- -- 88
2019-11-10 02:00:00 8.8 19 Oeste 38 Sudoeste 0 -- -- 91
2019-11-10 01:00:00 8.3 22 Sudoeste 40 Oeste 0 -- -- 90
2019-11-10 00:00:00 8.1 21 Sudoeste 40 Sudoeste 0 -- -- 90
2019-11-09 23:00:00 7.8 22 Sudoeste 37 Oeste 0 -- -- 90
2019-11-09 22:00:00 7.4 23 Sudoeste 41 Sudoeste 0 -- -- 91
2019-11-09 21:00:00 7.5 22 Sudoeste 35 Sudoeste 0.2 -- -- 89
2019-11-09 20:00:00 7.4 19 Sudoeste 33 Sudoeste 0.4 -- -- 89
2019-11-09 19:00:00 7.1 17 Sudoeste 36 Sudoeste 3.6 -- -- 89
2019-11-09 18:00:00 7.9 22 Sudoeste 46 Sudoeste 0.4 -- -- 79
2019-11-09 17:00:00 11.3 29 Sudoeste 51 Oeste 0 -- -- 47
2019-11-09 16:00:00 13.2 25 Sudoeste 41 Sudoeste 0 -- -- 41
2019-11-09 15:00:00 12.7 24 Sudoeste 40 Sudoeste 0 -- -- 42
2019-11-09 14:00:00 11.9 25 Oeste 37 Oeste 0 -- -- 43
2019-11-09 13:00:00 11.1 23 Oeste 33 Oeste 0 -- -- 48
2019-11-09 12:00:00 9.9 21 Oeste 32 Oeste 0 -- -- 53
2019-11-09 11:00:00 9 17 Sudoeste 29 Sudoeste 0 -- -- 56
2019-11-09 10:00:00 7.3 14 Sudoeste 22 Sudoeste 0 -- -- 64
2019-11-09 09:00:00 3.7 8 Sudoeste 16 Sudoeste 0 -- -- 79
2019-11-09 08:00:00 1.5 6 Sudoeste 15 Sudoeste 0 -- -- 84
2019-11-09 07:00:00 2.7 7 Oeste 21 Sudoeste 0 -- -- 80
2019-11-09 06:00:00 2.6 9 Sudoeste 17 Oeste 0 -- -- 80
2019-11-09 05:00:00 3.3 11 Oeste 19 Oeste 0 -- -- 76
2019-11-09 04:00:00 3.2 10 Oeste 21 Oeste 0 -- -- 76
2019-11-09 03:00:00 2.8 6 Sudoeste 13 Oeste 0 -- -- 77
2019-11-09 02:00:00 3.8 9 Oeste 20 Oeste 0 -- -- 74
2019-11-09 01:00:00 4.2 11 Oeste 19 Oeste 0 -- -- 73
2019-11-09 00:00:00 4.3 10 Oeste 21 Oeste 0 -- -- 73
2019-11-08 23:00:00 4.4 11 Oeste 21 Oeste 0 -- -- 72
2019-11-08 22:00:00 5.8 15 Oeste 26 Oeste 0 -- -- 67
2019-11-08 21:00:00 6.2 16 Oeste 24 Oeste 0 -- -- 65
2019-11-08 20:00:00 7.5 15 Oeste 25 Oeste 0 -- -- 53
2019-11-08 19:00:00 8.7 14 Oeste 29 Oeste 0 -- -- 44
2019-11-08 18:00:00 10.1 18 Oeste 32 Oeste 0 -- -- 41
2019-11-08 17:00:00 11.7 22 Oeste 42 Oeste 0 -- -- 38
2019-11-08 16:00:00 12.2 24 Oeste 43 Oeste 0 -- -- 38
2019-11-08 15:00:00 11.8 25 Oeste 43 Sudoeste 0 -- -- 41
2019-11-08 14:00:00 11.2 25 Oeste 48 Noroeste 0 -- -- 45
2019-11-08 13:00:00 10.2 31 Oeste 46 Oeste 0 -- -- 48
2019-11-08 12:00:00 8.5 25 Oeste 39 Oeste 0 -- -- 59
2019-11-08 11:00:00 7.2 22 Oeste 42 Oeste 0.2 -- -- 68
2019-11-08 10:00:00 5.8 23 Oeste 40 Oeste 0 -- -- 75
2019-11-08 09:00:00 3.2 15 Oeste 22 Oeste 0 -- -- 91
2019-11-08 08:00:00 2.1 9 Oeste 23 Oeste 0 -- -- 90
2019-11-08 07:00:00 3.1 15 Oeste 27 Sudoeste 0 -- -- 88
2019-11-08 06:00:00 3.7 15 Sudoeste 30 Sudoeste 0 -- -- 87
2019-11-08 05:00:00 4.3 12 Oeste 26 Oeste 0 -- -- 86
2019-11-08 04:00:00 5 15 Oeste 27 Oeste 0 -- -- 84
2019-11-08 03:00:00 5.7 15 Oeste 25 Oeste 0 -- -- 84
2019-11-08 02:00:00 5.6 10 Oeste 19 Oeste 0 -- -- 84
2019-11-08 01:00:00 5.4 7 Oeste 14 Oeste 0.6 -- -- 85
2019-11-08 00:00:00 5.5 5 Oeste 24 Noroeste 0.2 -- -- 86
2019-11-07 23:00:00 6.5 12 Noroeste 31 Oeste 0.8 -- -- 76
2019-11-07 22:00:00 8.4 14 Sudoeste 28 Sudoeste 0 -- -- 60
2019-11-07 21:00:00 8.7 12 Sudoeste 22 Sudoeste 0 -- -- 54
2019-11-07 20:00:00 9.1 9 Oeste 19 Oeste 0 -- -- 45
2019-11-07 19:00:00 10.3 13 Noroeste 23 Noroeste 0 -- -- 41
2019-11-07 18:00:00 11.6 17 Noroeste 29 Noroeste 0 -- -- 36
2019-11-07 17:00:00 12.9 18 Noroeste 39 Noroeste 0 -- -- 34
2019-11-07 16:00:00 13.4 18 Oeste 37 Noroeste 0 -- -- 41
2019-11-07 15:00:00 13.8 24 Noroeste 41 Oeste 0 -- -- 50
2019-11-07 14:00:00 14.3 21 Noroeste 49 Oeste 0 -- -- 63
2019-11-07 13:00:00 12.1 24 Oeste 40 Oeste 0 -- -- 81
2019-11-07 12:00:00 12 19 Sudoeste 37 Sudoeste 0 -- -- 86
2019-11-07 11:00:00 11.1 18 Sudoeste 32 Oeste 0 -- -- 92
2019-11-07 10:00:00 9.6 17 Sudoeste 35 Sudoeste 0 -- -- 91
2019-11-07 09:00:00 9.2 16 Sudoeste 30 Sudoeste 0 -- -- 92
2019-11-07 08:00:00 8.4 17 Sudoeste 32 Sudoeste 0 -- -- 92
2019-11-07 07:00:00 8.5 21 Sudoeste 32 Sudoeste 0 -- -- 92
2019-11-07 06:00:00 8.2 18 Sudoeste 29 Sudoeste 0.2 -- -- 91
2019-11-07 05:00:00 9.4 18 Sudoeste 28 Sudoeste 0 -- -- 81
2019-11-07 04:00:00 8.9 14 Sudoeste 24 Sudoeste 0 -- -- 77
2019-11-07 03:00:00 7.6 13 Sudoeste 21 Oeste 0 -- -- 78
2019-11-07 02:00:00 5.8 9 Sudoeste 21 Sudoeste 0 -- -- 81
2019-11-07 01:00:00 5.8 12 Sudoeste 17 Sudoeste 0 -- -- 79
2019-11-07 00:00:00 6.3 14 Sudoeste 24 Sudoeste 0 -- -- 77
2019-11-06 23:00:00 6.6 12 Sudoeste 20 Sudoeste 0 -- -- 76
2019-11-06 22:00:00 7.5 12 Sudoeste 21 Sudoeste 0 -- -- 72
2019-11-06 21:00:00 6.8 9 Sudoeste 18 Sudoeste 0 -- -- 73
2019-11-06 20:00:00 8.6 10 Sudoeste 15 Sudoeste 0 -- -- 67
2019-11-06 19:00:00 9.6 7 Sudoeste 17 Sudoeste 0 -- -- 62
2019-11-06 18:00:00 11.1 12 Sudoeste 31 Oeste 0 -- -- 54
2019-11-06 17:00:00 13.4 14 Oeste 27 Oeste 0 -- -- 46
2019-11-06 16:00:00 12.8 14 Oeste 31 Noroeste 0 -- -- 49
2019-11-06 15:00:00 13.9 23 Oeste 35 Oeste 0 -- -- 46
2019-11-06 14:00:00 14.7 17 Oeste 30 Oeste 0 -- -- 47
2019-11-06 13:00:00 13.2 17 Oeste 31 Oeste 0 -- -- 51
2019-11-06 12:00:00 11.3 18 Oeste 27 Sudoeste 0 -- -- 60
2019-11-06 11:00:00 10.5 17 Oeste 26 Oeste 0 -- -- 64
2019-11-06 10:00:00 9.6 14 Oeste 22 Oeste 0 -- -- 73
2019-11-06 09:00:00 5.9 8 Sudoeste 16 Sudoeste 0 -- -- 93
2019-11-06 08:00:00 3.8 7 Sudoeste 11 Sudoeste 0 -- -- 92
2019-11-06 07:00:00 3.9 5 Sudoeste 14 Sudoeste 0 -- -- 90
2019-11-06 06:00:00 4.5 6 Sudoeste 13 Sudoeste 0 -- -- 88
2019-11-06 05:00:00 5.7 6 Sudoeste 17 Oeste 0 -- -- 86
2019-11-06 04:00:00 5.1 6 Sudoeste 13 Sudoeste 0 -- -- 87
2019-11-06 03:00:00 6.2 10 Oeste 26 Oeste 0 -- -- 82
2019-11-06 02:00:00 6.9 15 Oeste 25 Sudoeste 0 -- -- 82
2019-11-06 01:00:00 7.2 15 Oeste 24 Sudoeste 0 -- -- 81
2019-11-06 00:00:00 7.6 14 Oeste 25 Oeste 0 -- -- 80
2019-11-05 23:00:00 8.1 13 Oeste 22 Sudoeste 0 -- -- 78
2019-11-05 22:00:00 8.7 9 Oeste 23 Noroeste 0 -- -- 76
2019-11-05 21:00:00 9.5 10 Oeste 23 Sudoeste 0 -- -- 69
2019-11-05 20:00:00 10.6 14 Oeste 27 Oeste 0 -- -- 65
2019-11-05 19:00:00 11.3 17 Sudoeste 35 Sudoeste 0 -- -- 64
2019-11-05 18:00:00 12.6 26 Oeste 48 Sudoeste 0 -- -- 59
2019-11-05 17:00:00 13.2 30 Oeste 51 Sudoeste 0 -- -- 57
2019-11-05 16:00:00 13.4 34 Oeste 55 Oeste 0 -- -- 56
2019-11-05 15:00:00 13.7 27 Oeste 48 Sudoeste 0 -- -- 55
2019-11-05 14:00:00 13.2 26 Oeste 47 Oeste 0 -- -- 55
2019-11-05 13:00:00 12.8 24 Sudoeste 41 Oeste 0 -- -- 59
2019-11-05 12:00:00 11.6 26 Sudoeste 49 Sudoeste 0 -- -- 66
2019-11-05 11:00:00 10.9 32 Oeste 48 Oeste 0 -- -- 68
2019-11-05 10:00:00 9.7 25 Sudoeste 40 Sudoeste 0 -- -- 77
2019-11-05 09:00:00 8.1 24 Oeste 41 Oeste 0 -- -- 84
2019-11-05 08:00:00 8.3 26 Sudoeste 46 Sudoeste 0 -- -- 85
2019-11-05 07:00:00 8.3 23 Sudoeste 40 Sudoeste 0 -- -- 86
2019-11-05 06:00:00 8.4 22 Sudoeste 40 Sudoeste 0 -- -- 85
2019-11-05 05:00:00 8.7 20 Sudoeste 37 Oeste 0 -- -- 86
2019-11-05 04:00:00 9.3 21 Oeste 40 Sudoeste 0 -- -- 85
2019-11-05 03:00:00 10 24 Sudoeste 43 Sudoeste 0 -- -- 84
2019-11-05 02:00:00 10.7 24 Sudoeste 48 Oeste 0 -- -- 83
2019-11-05 01:00:00 11.3 24 Sudoeste 50 Oeste 0.4 -- -- 90
2019-11-05 00:00:00 12 28 Sudoeste 55 Sudoeste 0.4 -- -- 88
2019-11-04 23:00:00 12.7 26 Sudoeste 57 Sudoeste 0 -- -- 83
2019-11-04 22:00:00 13.4 29 Sudoeste 50 Sudoeste 0 -- -- 73
2019-11-04 21:00:00 13.5 23 Sudoeste 42 Sudoeste 0 -- -- 66
2019-11-04 20:00:00 13.9 24 Sudoeste 46 Sudoeste 0 -- -- 60
2019-11-04 19:00:00 14.1 31 Sudoeste 55 Sudoeste 0 -- -- 60
2019-11-04 18:00:00 14.7 27 Sudoeste 52 Sudoeste 0 -- -- 59
2019-11-04 17:00:00 15.6 36 Sudoeste 58 Oeste 0 -- -- 57
2019-11-04 16:00:00 16.4 33 Oeste 55 Sudoeste 0 -- -- 58
2019-11-04 15:00:00 16.4 36 Sudoeste 59 Sudoeste 0 -- -- 56
2019-11-04 14:00:00 16.6 36 Sudoeste 60 Oeste 0 -- -- 57
2019-11-04 13:00:00 14.2 28 Sudoeste 52 Oeste 0 -- -- 77
2019-11-04 12:00:00 14.9 35 Sudoeste 59 Oeste 0 -- -- 70
2019-11-04 11:00:00 14.5 28 Sudoeste 48 Sudoeste 0 -- -- 73
2019-11-04 10:00:00 13.3 25 Sudoeste 53 Sudoeste 0 -- -- 83
2019-11-04 09:00:00 13 22 Sudoeste 44 Sudoeste 0 -- -- 85
2019-11-04 08:00:00 12.6 24 Sudoeste 46 Sudoeste 0 -- -- 86
2019-11-04 07:00:00 12.6 22 Sudoeste 46 Sudoeste 0 -- -- 87
2019-11-04 06:00:00 12.4 25 Sudoeste 46 Sudoeste 0 -- -- 88
2019-11-04 05:00:00 12.8 21 Sudoeste 46 Sudoeste 0 -- -- 83
2019-11-04 04:00:00 12.6 26 Sudoeste 52 Sudoeste 0 -- -- 83
2019-11-04 03:00:00 12.7 26 Sudoeste 45 Sudoeste 0 -- -- 80
2019-11-04 02:00:00 12 25 Sudoeste 41 Sudoeste 0 -- -- 82
2019-11-04 01:00:00 11.7 22 Sudoeste 37 Sudoeste 0 -- -- 82
2019-11-04 00:00:00 11.9 17 Sudoeste 37 Sudoeste 0 -- -- 80
2019-11-03 23:00:00 12 22 Sudoeste 37 Oeste 0 -- -- 74
2019-11-03 22:00:00 12.1 20 Sudoeste 37 Oeste 0 -- -- 70
2019-11-03 21:00:00 12.4 25 Sudoeste 40 Sudoeste 0 -- -- 67
2019-11-03 20:00:00 12.7 16 Oeste 36 Oeste 0 -- -- 65
2019-11-03 19:00:00 14.1 21 Oeste 45 Sudoeste 0 -- -- 61
2019-11-03 18:00:00 16.1 32 Oeste 54 Sudoeste 0 -- -- 57
2019-11-03 17:00:00 16.9 30 Oeste 56 Oeste 0 -- -- 60
2019-11-03 16:00:00 17.1 34 Oeste 58 Sudoeste 0 -- -- 61
2019-11-03 15:00:00 14.1 15 Oeste 34 Oeste 0.4 -- -- 73
2019-11-03 14:00:00 14.3 21 Oeste 66 Sudoeste 0 -- -- 70
2019-11-03 13:00:00 15.9 40 Sudoeste 72 Oeste 0 -- -- 70
2019-11-03 12:00:00 14.9 40 Sudoeste 71 Oeste 0 -- -- 77
2019-11-03 11:00:00 15 43 Sudoeste 75 Sudoeste 0 -- -- 76
2019-11-03 10:00:00 13.9 44 Sudoeste 69 Sudoeste 0 -- -- 80
2019-11-03 09:00:00 12.6 37 Sudoeste 63 Sudoeste 0 -- -- 85
2019-11-03 08:00:00 12 35 Sudoeste 60 Sudoeste 0 -- -- 87
2019-11-03 07:00:00 12.2 36 Sudoeste 64 Sudoeste 0 -- -- 84
2019-11-03 06:00:00 12.4 29 Sudoeste 54 Sudoeste 0 -- -- 80
2019-11-03 05:00:00 12.2 33 Sudoeste 59 Sudoeste 0 -- -- 85
2019-11-03 04:00:00 12.4 29 Sudoeste 52 Sudoeste 0 -- -- 80
2019-11-03 03:00:00 12.5 30 Sudoeste 53 Sudoeste 0 -- -- 80
2019-11-03 02:00:00 12.8 28 Sudoeste 51 Sudoeste 0 -- -- 82
2019-11-03 01:00:00 13.1 26 Sudoeste 52 Oeste 0 -- -- 83
2019-11-03 00:00:00 13.6 25 Sudoeste 43 Sudoeste 0 -- -- 87
2019-11-02 23:00:00 13.8 24 Sudoeste 52 Sudoeste 0.2 -- -- 88
2019-11-02 22:00:00 14.1 24 Sudoeste 42 Oeste 0 -- -- 88
2019-11-02 21:00:00 15 21 Sudoeste 42 Oeste 0 -- -- 80
2019-11-02 20:00:00 16.2 22 Sudoeste 37 Sudoeste 0 -- -- 69
2019-11-02 19:00:00 16.4 21 Oeste 56 Sudoeste 0 -- -- 66
2019-11-02 18:00:00 17.6 23 Oeste 52 Sudoeste 0 -- -- 59
2019-11-02 17:00:00 18.3 33 Oeste 53 Sudoeste 0 -- -- 55
2019-11-02 16:00:00 18.8 29 Sudoeste 49 Sudoeste 0 -- -- 53
2019-11-02 15:00:00 19.4 29 Sudoeste 57 Oeste 0 -- -- 56
2019-11-02 14:00:00 18.9 32 Sudoeste 53 Sudoeste 0 -- -- 57
2019-11-02 13:00:00 19.4 28 Sudoeste 47 Sudoeste 0 -- -- 57
2019-11-02 12:00:00 18.4 27 Oeste 48 Oeste 0 -- -- 64
2019-11-02 11:00:00 17.1 28 Oeste 45 Oeste 0 -- -- 72
2019-11-02 10:00:00 16.4 24 Sudoeste 42 Sudoeste 0 -- -- 79
2019-11-02 09:00:00 14.8 22 Sudoeste 35 Sudoeste 0 -- -- 86
2019-11-02 08:00:00 13.5 17 Sudoeste 35 Sudoeste 0 -- -- 90
2019-11-02 07:00:00 13.8 17 Sudoeste 35 Sudoeste 0 -- -- 88
2019-11-02 06:00:00 14.3 19 Sudoeste 38 Sudoeste 0 -- -- 87
2019-11-02 05:00:00 14.8 25 Sudoeste 42 Sudoeste 0 -- -- 86
2019-11-02 04:00:00 14.7 18 Sudoeste 36 Sudoeste 0 -- -- 86
2019-11-02 03:00:00 15.2 21 Sudoeste 39 Sudoeste 0 -- -- 84
2019-11-02 02:00:00 15.4 23 Sudoeste 44 Sudoeste 0 -- -- 83
2019-11-02 01:00:00 15.8 25 Sudoeste 42 Sudoeste 0 -- -- 81
2019-11-02 00:00:00 16.2 24 Sudoeste 41 Sudoeste 0 -- -- 80
2019-11-01 23:00:00 16.9 23 Sudoeste 39 Sudoeste 0 -- -- 77
2019-11-01 22:00:00 17 24 Sudoeste 44 Oeste 0 -- -- 77
2019-11-01 21:00:00 16.8 22 Oeste 41 Sudoeste 0 -- -- 80
2019-11-01 20:00:00 17.5 21 Sudoeste 41 Oeste 0 -- -- 78
2019-11-01 19:00:00 18 24 Sudoeste 49 Oeste 0 -- -- 74
2019-11-01 18:00:00 19.4 21 Sudoeste 44 Sudoeste 0 -- -- 68
2019-11-01 17:00:00 20.2 24 Sudoeste 43 Oeste 0 -- -- 66
2019-11-01 16:00:00 21.1 26 Oeste 45 Oeste 0 -- -- 61
2019-11-01 15:00:00 21.2 22 Sudoeste 39 Sudoeste 0 -- -- 61
2019-11-01 14:00:00 20.9 25 Sudoeste 44 Sudoeste 0 -- -- 63
2019-11-01 13:00:00 20.1 23 Sudoeste 38 Sudoeste 0 -- -- 66
2019-11-01 12:00:00 18.9 21 Sudoeste 34 Sudoeste 0 -- -- 72
2019-11-01 11:00:00 18.8 19 Sudoeste 31 Oeste 0 -- -- 74
2019-11-01 10:00:00 17.6 14 Sudoeste 26 Oeste 0 -- -- 80
2019-11-01 09:00:00 15 14 Oeste 23 Sudoeste 0 -- -- 92
2019-11-01 08:00:00 14.8 13 Oeste 23 Sudoeste 0 -- -- 91
2019-11-01 07:00:00 15.1 14 Oeste 24 Oeste 0 -- -- 91
2019-11-01 06:00:00 15.2 13 Oeste 21 Oeste 0 -- -- 90
2019-11-01 05:00:00 15.3 9 Sudoeste 18 Sudoeste 0 -- -- 88
2019-11-01 04:00:00 15.2 14 Oeste 27 Oeste 0 -- -- 87
2019-11-01 03:00:00 15.1 13 Sudoeste 23 Sudoeste 0 -- -- 85
2019-11-01 02:00:00 14 6 Sudoeste 13 Sudoeste 0 -- -- 84
2019-11-01 01:00:00 14.2 9 Oeste 15 Oeste 0 -- -- 83
2019-11-01 00:00:00 14.6 6 Sudoeste 11 Sudoeste 0 -- -- 83
2019-10-31 23:00:00 15.5 8 Oeste 21 Oeste 0 -- -- 80
2019-10-31 22:00:00 16.7 11 Oeste 20 Oeste 0 -- -- 75
2019-10-31 21:00:00 17.6 10 Oeste 17 Oeste 0 -- -- 69
2019-10-31 20:00:00 17.2 8 Oeste 12 Oeste 0 -- -- 70
2019-10-31 19:00:00 18.5 6 Oeste 15 Oeste 0 -- -- 61
2019-10-31 18:00:00 20.3 12 Noroeste 28 Oeste 0 -- -- 55
2019-10-31 17:00:00 21.6 19 Oeste 33 Oeste 0 -- -- 50
2019-10-31 16:00:00 21.7 15 Oeste 36 Oeste 0 -- -- 51
2019-10-31 15:00:00 21.1 22 Oeste 36 Oeste 0 -- -- 53
2019-10-31 14:00:00 22.8 18 Oeste 38 Oeste 0 -- -- 49
2019-10-31 13:00:00 20.3 16 Oeste 30 Noroeste 0 -- -- 57
2019-10-31 12:00:00 18.7 15 Oeste 33 Oeste 0 -- -- 67
2019-10-31 11:00:00 18.2 19 Oeste 32 Oeste 0 -- -- 71
2019-10-31 10:00:00 16.4 15 Oeste 24 Oeste 0 -- -- 81
2019-10-31 09:00:00 15.2 13 Oeste 20 Oeste 0 -- -- 87
2019-10-31 08:00:00 14.8 11 Oeste 18 Oeste 0 -- -- 87
2019-10-31 07:00:00 14.7 10 Oeste 21 Oeste 0 -- -- 85
2019-10-31 06:00:00 14.8 12 Sudoeste 21 Oeste 0 -- -- 83
2019-10-31 05:00:00 15.3 13 Oeste 21 Sudoeste 0 -- -- 79
2019-10-31 04:00:00 15.6 12 Oeste 19 Sudoeste 0 -- -- 77
2019-10-31 03:00:00 15.5 10 Oeste 15 Oeste 0 -- -- 77
2019-10-31 02:00:00 15.5 9 Oeste 16 Oeste 0 -- -- 75
2019-10-31 01:00:00 15.3 4 Sudoeste 14 Sudoeste 0 -- -- 76
2019-10-31 00:00:00 15.5 7 Sudoeste 12 Sudoeste 0 -- -- 77
2019-10-30 23:00:00 15.6 4 Oeste 10 Oeste 0 -- -- 76
2019-10-30 22:00:00 15.9 4 Oeste 8 Oeste 0 -- -- 73
2019-10-30 21:00:00 15.8 3 Sudoeste 8 Oeste 0 -- -- 69
2019-10-30 20:00:00 16.7 3 Sudoeste 8 Oeste 0 -- -- 64
2019-10-30 19:00:00 17.5 5 Oeste 14 Oeste 0 -- -- 59
2019-10-30 18:00:00 19.2 9 Oeste 16 Oeste 0 -- -- 52
2019-10-30 17:00:00 20.4 9 Oeste 18 Oeste 0 -- -- 49
2019-10-30 16:00:00 21.9 13 Oeste 23 Oeste 0 -- -- 44
2019-10-30 15:00:00 22.4 12 Oeste 23 Oeste 0 -- -- 46
2019-10-30 14:00:00 21 13 Oeste 23 Oeste 0 -- -- 50
2019-10-30 13:00:00 20.6 13 Oeste 22 Oeste 0 -- -- 53
2019-10-30 12:00:00 19.2 13 Oeste 19 Oeste 0 -- -- 60
2019-10-30 11:00:00 17.1 10 Oeste 15 Oeste 0 -- -- 68
2019-10-30 10:00:00 13.2 7 Oeste 11 Oeste 0 -- -- 89
2019-10-30 09:00:00 10.5 0 Calma -- -- 0 -- -- 94
2019-10-30 08:00:00 8.3 0 Calma -- -- 0 -- -- 94
2019-10-30 07:00:00 8 0 Calma -- -- 0 -- -- 94
2019-10-30 06:00:00 8.6 0 Calma -- -- 0 -- -- 93
2019-10-30 05:00:00 8.8 0 Calma -- -- 0 -- -- 93
2019-10-30 04:00:00 9 0 Calma -- -- 0 -- -- 92
2019-10-30 03:00:00 8.8 0 Calma -- -- 0 -- -- 92
2019-10-30 02:00:00 9.1 0 Calma 3 Sudoeste 0 -- -- 91
2019-10-30 01:00:00 9.6 0 Calma 6 Sur 0 -- -- 91
2019-10-30 00:00:00 9.6 2 Sur 6 Sudeste 0 -- -- 90
2019-10-29 23:00:00 10.1 0 Calma 6 Sudeste 0 -- -- 88
2019-10-29 22:00:00 11.1 0 Calma 6 Sudoeste 0 -- -- 87
2019-10-29 21:00:00 12.1 0 Calma 4 Sudoeste 0 -- -- 86
2019-10-29 20:00:00 13.2 0 Calma 5 Sudoeste 0 -- -- 82
2019-10-29 19:00:00 15 2 Oeste 13 Oeste 0 -- -- 74
2019-10-29 18:00:00 18.3 6 Noroeste 15 Noroeste 0 -- -- 62
2019-10-29 17:00:00 20.3 10 Noroeste 19 Oeste 0 -- -- 56
2019-10-29 16:00:00 20.7 11 Noroeste 20 Noroeste 0 -- -- 57
2019-10-29 15:00:00 19.8 11 Noroeste 20 Norte 0 -- -- 60
2019-10-29 14:00:00 18.9 9 Noroeste 22 Oeste 0 -- -- 63
2019-10-29 13:00:00 21 9 Oeste 19 Oeste 0 -- -- 55
2019-10-29 12:00:00 19.1 7 Oeste 13 Oeste 0 -- -- 59
2019-10-29 11:00:00 15.9 6 Sudoeste 17 Sudoeste 0 -- -- 70
2019-10-29 10:00:00 15.1 7 Oeste 13 Oeste 0 -- -- 71
2019-10-29 09:00:00 12.6 7 Oeste 11 Oeste 0 -- -- 79
2019-10-29 08:00:00 9.6 5 Oeste 9 Sudoeste 0 -- -- 87
2019-10-29 07:00:00 9.6 5 Sudoeste 9 Oeste 0 -- -- 86
2019-10-29 06:00:00 9.4 3 Sudoeste 7 Oeste 0 -- -- 87
2019-10-29 05:00:00 9.9 0 Calma 8 Sudoeste 0 -- -- 83
2019-10-29 04:00:00 10.3 2 Sudoeste 8 Sudoeste 0 -- -- 83
2019-10-29 03:00:00 10.8 3 Sudoeste 9 Sudoeste 0 -- -- 81
2019-10-29 02:00:00 11.7 5 Sudoeste 11 Oeste 0 -- -- 79
2019-10-29 01:00:00 13 6 Sudoeste 15 Sudoeste 0 -- -- 74
2019-10-29 00:00:00 13.7 8 Sudoeste 14 Sudoeste 0 -- -- 69
2019-10-28 23:00:00 13.5 5 Sudoeste 11 Sudoeste 0 -- -- 70
2019-10-28 22:00:00 14 4 Sudoeste 8 Sur 0 -- -- 68
2019-10-28 21:00:00 15.8 0 Calma 5 Sur 0 -- -- 62
2019-10-28 20:00:00 17.3 3 Sudoeste 6 Oeste 0 -- -- 57
2019-10-28 19:00:00 18 4 Oeste 8 Oeste 0 -- -- 54
2019-10-28 18:00:00 19.6 6 Oeste 21 Oeste 0 -- -- 48
2019-10-28 17:00:00 20.8 14 Oeste 21 Oeste 0 -- -- 42
2019-10-28 16:00:00 21.5 12 Oeste 21 Oeste 0 -- -- 40
2019-10-28 15:00:00 21.8 14 Oeste 24 Oeste 0 -- -- 39
2019-10-28 14:00:00 22.3 15 Oeste 27 Oeste 0 -- -- 39
2019-10-28 13:00:00 20.7 13 Oeste 21 Oeste 0 -- -- 46
2019-10-28 12:00:00 18.5 6 Oeste 11 Oeste 0 -- -- 53
2019-10-28 11:00:00 16 0 Calma 7 Nordeste 0 -- -- 71
2019-10-28 10:00:00 12.1 0 Calma 5 Nordeste 0 -- -- 95
2019-10-28 09:00:00 10.5 2 Nordeste 8 Este 0 -- -- 95
2019-10-28 08:00:00 9.8 6 Nordeste 10 Nordeste 0 -- -- 95
2019-10-28 07:00:00 9.5 3 Nordeste 8 Este 0 -- -- 95
2019-10-28 06:00:00 9.5 5 Nordeste 9 Este 0 -- -- 95
2019-10-28 05:00:00 9.4 4 Este 10 Nordeste 0 -- -- 94
2019-10-28 04:00:00 9.7 4 Nordeste 12 Este 0 -- -- 94
2019-10-28 03:00:00 9.3 8 Nordeste 10 Nordeste 0 -- -- 94
2019-10-28 02:00:00 9.1 6 Nordeste 11 Nordeste 0 -- -- 93
2019-10-28 01:00:00 9.5 8 Nordeste 13 Nordeste 0 -- -- 92
2019-10-28 00:00:00 10 6 Nordeste 10 Nordeste 0 -- -- 90
2019-10-27 23:00:00 11.5 6 Nordeste 9 Este 0 -- -- 85
2019-10-27 22:00:00 12.9 0 Calma 9 Sudeste 0 -- -- 81
2019-10-27 21:00:00 12.9 0 Calma 7 Este 0 -- -- 81
2019-10-27 20:00:00 13.9 3 Este 6 Este 0 -- -- 78
2019-10-27 19:00:00 15.3 3 Nordeste 9 Nordeste 0 -- -- 72
2019-10-27 18:00:00 18.5 5 Este 13 Nordeste 0 -- -- 58
2019-10-27 17:00:00 21.4 5 Este 14 Nordeste 0 -- -- 47
2019-10-27 16:00:00 22.3 8 Nordeste 17 Este 0 -- -- 46
2019-10-27 15:00:00 20.3 12 Nordeste 18 Nordeste 0 -- -- 54
2019-10-27 14:00:00 18.5 12 Nordeste 22 Nordeste 0 -- -- 64
2019-10-27 13:00:00 15.9 12 Nordeste 22 Este 0 -- -- 88
2019-10-27 12:00:00 12.4 14 Nordeste 21 Nordeste 0 -- -- 93
2019-10-27 11:00:00 11.1 13 Nordeste 22 Nordeste 0 -- -- 95
2019-10-27 10:00:00 10.4 14 Este 23 Nordeste 0 -- -- 95
2019-10-27 09:00:00 9.9 8 Este 23 Este 0 -- -- 95
2019-10-27 08:00:00 9.4 11 Este 23 Nordeste 0 -- -- 95
2019-10-27 07:00:00 9.8 6 Este 21 Este 0 -- -- 94
2019-10-27 06:00:00 10.2 9 Este 22 Este 0 -- -- 94
2019-10-27 05:00:00 9.5 10 Este 19 Este 0 -- -- 94
2019-10-27 04:00:00 9.7 8 Este 15 Este 0 -- -- 93
2019-10-27 03:00:00 9.4 6 Nordeste 13 Nordeste 0 -- -- 92
2019-10-27 02:00:00 10 9 Nordeste 14 Este 0 -- -- 90
2019-10-27 01:00:00 9.7 9 Este 15 Nordeste 0 -- -- 82
2019-10-27 00:00:00 9.9 2 Este 10 Nordeste 0 -- -- 79
2019-10-26 23:00:00 11.4 4 Sudeste 8 Sudeste 0 -- -- 75
2019-10-26 22:00:00 12.6 0 Calma 9 Sudeste 0 -- -- 68
2019-10-26 21:00:00 14.4 0 Calma 5 Este 0 -- -- 61
2019-10-26 20:00:00 16.8 0 Calma 3 Nordeste 0 -- -- 49
2019-10-26 19:00:00 23.2 3 Norte 6 Norte 0 -- -- 32
2019-10-26 18:00:00 26.2 3 Noroeste 10 Norte 0 -- -- 27
2019-10-26 17:00:00 25.9 4 Nordeste 11 Nordeste 0 -- -- 27
2019-10-26 16:00:00 25.9 4 Norte 10 Nordeste 0 -- -- 28
2019-10-26 15:00:00 25.2 5 Nordeste 15 Nordeste 0 -- -- 31
2019-10-26 14:00:00 22.5 8 Nordeste 15 Nordeste 0 -- -- 43
2019-10-26 13:00:00 20.2 8 Nordeste 17 Nordeste 0 -- -- 53
2019-10-26 12:00:00 17.6 9 Nordeste 17 Nordeste 0 -- -- 65
2019-10-26 11:00:00 15.5 8 Nordeste 12 Nordeste 0 -- -- 71
2019-10-26 10:00:00 8 5 Nordeste 8 Nordeste 0 -- -- 94
2019-10-26 09:00:00 5.4 3 Este 8 Este 0 -- -- 92
2019-10-26 08:00:00 6 2 Este 5 Nordeste 0 -- -- 92
2019-10-26 07:00:00 6.9 4 Este 7 Nordeste 0 -- -- 91
2019-10-26 06:00:00 7.4 2 Este 7 Este 0 -- -- 90
2019-10-26 05:00:00 8 5 Este 8 Este 0 -- -- 88
2019-10-26 04:00:00 7.9 3 Sudeste 12 Este 0 -- -- 88
2019-10-26 03:00:00 8 2 Sudeste 6 Sudeste 0 -- -- 89
2019-10-26 02:00:00 8.3 4 Sudeste 7 Sudeste 0 -- -- 88
2019-10-26 01:00:00 9 2 Sudeste 6 Sudeste 0 -- -- 88
2019-10-26 00:00:00 10 0 Calma 8 Sur 0 -- -- 85
2019-10-25 23:00:00 10.6 0 Calma 7 Sudeste 0 -- -- 83
2019-10-25 22:00:00 11.9 0 Calma -- -- 0 -- -- 82
2019-10-25 21:00:00 13.5 0 Calma 5 Oeste 0 -- -- 78
2019-10-25 20:00:00 15.6 4 Oeste 12 Oeste 0 -- -- 68
2019-10-25 19:00:00 19.8 7 Oeste 13 Noroeste 0 -- -- 52
2019-10-25 18:00:00 21.9 9 Oeste 15 Oeste 0 -- -- 46
2019-10-25 17:00:00 22.1 8 Oeste 18 Sudoeste 0 -- -- 47
2019-10-25 16:00:00 22.3 8 Oeste 20 Noroeste 0 -- -- 46
2019-10-25 15:00:00 21.1 9 Oeste 16 Oeste 0 -- -- 47
2019-10-25 14:00:00 20 9 Oeste 16 Oeste 0 -- -- 51
2019-10-25 13:00:00 19.6 4 Oeste 9 Oeste 0 -- -- 51
2019-10-25 12:00:00 17.9 0 Calma 7 Nordeste 0 -- -- 54
2019-10-25 11:00:00 16.5 0 Calma 2 Nordeste 0 -- -- 56
2019-10-25 10:00:00 8.8 0 Calma 3 Sudeste 0 -- -- 91
2019-10-25 09:00:00 5.1 0 Calma 5 Este 0 -- -- 92
2019-10-25 08:00:00 5.7 2 Sudeste 6 Este 0 -- -- 91
2019-10-25 07:00:00 5.8 3 Este 6 Este 0 -- -- 91
2019-10-25 06:00:00 5.6 0 Calma 6 Nordeste 0 -- -- 89
2019-10-25 05:00:00 7.1 2 Sur 6 Sudoeste 0 -- -- 86
2019-10-25 04:00:00 7.5 3 Sudoeste 8 Sudoeste 0 -- -- 86
2019-10-25 03:00:00 8.1 6 Sudoeste 13 Oeste 0 -- -- 87
2019-10-25 02:00:00 7.3 4 Sudoeste 8 Sudoeste 0 -- -- 89
2019-10-25 01:00:00 8.2 2 Sur 10 Sudoeste 0 -- -- 85
2019-10-25 00:00:00 8.4 5 Sudoeste 10 Sudoeste 0 -- -- 86
2019-10-24 23:00:00 9.1 5 Sudoeste 9 Sudoeste 0 -- -- 84
2019-10-24 22:00:00 9.9 5 Sudoeste 12 Sudoeste 0 -- -- 82
2019-10-24 21:00:00 10.7 3 Sudoeste 10 Sudoeste 0 -- -- 80
2019-10-24 20:00:00 11.9 6 Sudoeste 21 Sudoeste 0 -- -- 75
2019-10-24 19:00:00 14.1 13 Sudoeste 30 Sudoeste 0 -- -- 65
2019-10-24 18:00:00 15.2 19 Oeste 32 Oeste 0 -- -- 54
2019-10-24 17:00:00 16.4 18 Oeste 31 Oeste 0 -- -- 52
2019-10-24 16:00:00 16.2 18 Oeste 31 Sudoeste 0 -- -- 51
2019-10-24 15:00:00 15.2 20 Oeste 30 Oeste 0 -- -- 54
2019-10-24 14:00:00 14.8 14 Oeste 28 Oeste 0 -- -- 62
2019-10-24 13:00:00 13.2 14 Oeste 26 Oeste 0 -- -- 67
2019-10-24 12:00:00 10.8 16 Oeste 31 Sudoeste 0 -- -- 79
2019-10-24 11:00:00 10.1 15 Oeste 24 Oeste 0 -- -- 89
2019-10-24 10:00:00 8.9 13 Oeste 22 Oeste 0 -- -- 92
2019-10-24 09:00:00 8.7 11 Oeste 21 Oeste 0 -- -- 92
2019-10-24 08:00:00 8.6 12 Sudoeste 25 Oeste 0 -- -- 92
2019-10-24 07:00:00 8.6 15 Oeste 24 Oeste 0 -- -- 92
2019-10-24 06:00:00 8.5 15 Oeste 24 Oeste 0 -- -- 93
2019-10-24 05:00:00 8.4 15 Sudoeste 24 Sudoeste 0 -- -- 93
2019-10-24 04:00:00 8.9 17 Oeste 29 Oeste 0 -- -- 92
2019-10-24 03:00:00 8.9 14 Oeste 29 Sudoeste 0 -- -- 93
2019-10-24 02:00:00 8.9 14 Sudoeste 26 Oeste 0.2 -- -- 93
2019-10-24 01:00:00 8.8 13 Sudoeste 23 Sudoeste 0.2 -- -- 93
2019-10-24 00:00:00 8.6 8 Sudoeste 17 Sudoeste 0 -- -- 93
2019-10-23 23:00:00 8.4 9 Oeste 22 Sudoeste 0.4 -- -- 92
2019-10-23 22:00:00 8.4 13 Sudoeste 31 Sudoeste 0 -- -- 91
2019-10-23 21:00:00 8.1 13 Sudoeste 27 Sudoeste 0.2 -- -- 91
2019-10-23 20:00:00 8.4 15 Sudoeste 29 Sudoeste 0 -- -- 88
2019-10-23 19:00:00 8.2 17 Sudoeste 28 Sudoeste 0.4 -- -- 88
2019-10-23 18:00:00 8.8 22 Sudoeste 32 Sudoeste 0.2 -- -- 85
2019-10-23 17:00:00 8.5 18 Sudoeste 40 Oeste 0.6 -- -- 86
2019-10-23 16:00:00 8.8 19 Sudoeste 34 Sudoeste 0.8 -- -- 87
2019-10-23 15:00:00 8.7 14 Sudoeste 30 Sudoeste 0.4 -- -- 89
2019-10-23 14:00:00 8.5 16 Sudoeste 36 Sudoeste 0.4 -- -- 87
2019-10-23 13:00:00 8.8 19 Sudoeste 32 Sudoeste 0 -- -- 81
2019-10-23 12:00:00 9.3 19 Sudoeste 33 Sudoeste 0 -- -- 77
2019-10-23 11:00:00 8.7 19 Sudoeste 30 Sudoeste 0 -- -- 82
2019-10-23 10:00:00 7.6 17 Sudoeste 27 Sudoeste 0 -- -- 89
2019-10-23 09:00:00 6.5 5 Sur 10 Sudoeste 0 -- -- 93
2019-10-23 08:00:00 6.3 0 Calma 8 Sur 0 -- -- 93
2019-10-23 07:00:00 6 5 Sudoeste 14 Sudoeste 0 -- -- 93
2019-10-23 06:00:00 6.7 9 Sudoeste 19 Sudoeste 0 -- -- 92
2019-10-23 05:00:00 7.3 12 Sudoeste 22 Sudoeste 0.2 -- -- 92
2019-10-23 04:00:00 7.5 15 Oeste 31 Oeste 0 -- -- 92
2019-10-23 03:00:00 7.5 17 Oeste 30 Sudoeste 0.2 -- -- 92
2019-10-23 02:00:00 7.6 15 Oeste 24 Oeste 0.2 -- -- 92
2019-10-23 01:00:00 7.6 15 Oeste 24 Oeste 0.6 -- -- 92
2019-10-23 00:00:00 7.9 12 Oeste 21 Oeste 0.2 -- -- 92
2019-10-22 23:00:00 7.9 13 Oeste 18 Oeste 0.2 -- -- 91
2019-10-22 22:00:00 8.1 10 Oeste 17 Oeste 0.2 -- -- 90
2019-10-22 21:00:00 8.3 10 Oeste 19 Oeste 0 -- -- 87
2019-10-22 20:00:00 8.9 10 Oeste 18 Oeste 0 -- -- 83
2019-10-22 19:00:00 9.2 12 Oeste 25 Oeste 0 -- -- 85
2019-10-22 18:00:00 9.7 13 Oeste 24 Noroeste 0 -- -- 80
2019-10-22 17:00:00 9.8 15 Oeste 23 Oeste 0 -- -- 78
2019-10-22 16:00:00 10.6 5 Oeste 11 Nordeste 0 -- -- 70
2019-10-22 15:00:00 10.5 2 Sudeste 18 Nordeste 0 -- -- 69
2019-10-22 14:00:00 10.2 9 Nordeste 37 Nordeste 0 -- -- 73
2019-10-22 13:00:00 9.8 13 Nordeste 28 Nordeste 0 -- -- 85
2019-10-22 12:00:00 9.5 18 Nordeste 30 Nordeste 0 -- -- 88
2019-10-22 11:00:00 9 14 Este 31 Este 0 -- -- 86
2019-10-22 10:00:00 8.6 9 Nordeste 23 Nordeste 0 -- -- 81
2019-10-22 09:00:00 8.1 6 Nordeste 13 Este 0 -- -- 80
2019-10-22 08:00:00 8.2 7 Nordeste 13 Nordeste 0 -- -- 78
2019-10-22 07:00:00 8.2 2 Este 11 Nordeste 0 -- -- 79
2019-10-22 06:00:00 7.6 4 Nordeste 9 Nordeste 0 -- -- 84
2019-10-22 05:00:00 7.6 4 Nordeste 14 Este 0 -- -- 82
2019-10-22 04:00:00 7.7 5 Nordeste 14 Este 0 -- -- 82
2019-10-22 03:00:00 7.7 9 Este 17 Nordeste 0 -- -- 81
2019-10-22 02:00:00 8 10 Nordeste 21 Este 0 -- -- 79
2019-10-22 01:00:00 7.7 5 Nordeste 9 Nordeste 0 -- -- 79
2019-10-22 00:00:00 8.5 4 Este 10 Sudeste 0 -- -- 75
2019-10-21 23:00:00 9.4 5 Nordeste 8 Nordeste 0 -- -- 70
2019-10-21 22:00:00 10 4 Nordeste 6 Nordeste 0 -- -- 69
2019-10-21 21:00:00 11 2 Nordeste 6 Este 0 -- -- 63
2019-10-21 20:00:00 12.7 0 Calma 9 Sudeste 0 -- -- 56
2019-10-21 19:00:00 14.9 6 Nordeste 14 Este 0 -- -- 47
2019-10-21 18:00:00 18.1 2 Noroeste 11 Oeste 0 -- -- 38
2019-10-21 17:00:00 18.6 2 Oeste 13 Oeste 0 -- -- 37
2019-10-21 16:00:00 19.8 8 Norte 15 Noroeste 0 -- -- 37
2019-10-21 15:00:00 17.3 5 Nordeste 16 Noroeste 0 -- -- 44
2019-10-21 14:00:00 15.1 4 Este 10 Sudeste 0 -- -- 51
2019-10-21 13:00:00 15.4 3 Sudoeste 8 Noroeste 0 -- -- 51
2019-10-21 12:00:00 15 2 Norte 9 Este 0 -- -- 56
2019-10-21 11:00:00 13 4 Norte 9 Norte 0 -- -- 63
2019-10-21 10:00:00 7.3 3 Sudoeste 5 Sudeste 0 -- -- 92
2019-10-21 09:00:00 3.3 4 Sudeste 9 Sudeste 0 -- -- 92
2019-10-21 08:00:00 3.4 0 Calma 3 Sur 0 -- -- 91
2019-10-21 07:00:00 3.8 0 Calma 6 Sudeste 0 -- -- 91
2019-10-21 06:00:00 4.4 3 Sudeste 6 Sudeste 0 -- -- 90
2019-10-21 05:00:00 5.1 0 Calma 6 Sudoeste 0 -- -- 91
2019-10-21 04:00:00 4.8 2 Sudoeste 8 Sudeste 0 -- -- 90
2019-10-21 03:00:00 5.5 0 Calma 9 Sudeste 0 -- -- 90
2019-10-21 02:00:00 6 4 Sudoeste 8 Sudoeste 0 -- -- 90
2019-10-21 01:00:00 6.5 3 Sur 10 Sudoeste 0 -- -- 88
2019-10-21 00:00:00 7.6 10 Oeste 15 Oeste 0 -- -- 86
2019-10-20 23:00:00 8.1 8 Oeste 15 Oeste 0 -- -- 84
2019-10-20 22:00:00 8.8 6 Sudoeste 18 Sudoeste 0 -- -- 82
2019-10-20 21:00:00 10.4 10 Sudoeste 22 Sudoeste 0 -- -- 73
2019-10-20 20:00:00 11 11 Sudoeste 31 Sudoeste 0 -- -- 69
2019-10-20 19:00:00 11.4 16 Sudoeste 43 Oeste 0 -- -- 66
2019-10-20 18:00:00 12 24 Oeste 41 Oeste 0 -- -- 63
2019-10-20 17:00:00 13.3 28 Oeste 43 Oeste 0 -- -- 57
2019-10-20 16:00:00 13.6 25 Oeste 44 Oeste 0 -- -- 58
2019-10-20 15:00:00 13.2 26 Sudoeste 40 Sudoeste 0 -- -- 60
2019-10-20 14:00:00 13.7 23 Sudoeste 37 Sudoeste 0 -- -- 62
2019-10-20 13:00:00 12.2 21 Oeste 32 Sudoeste 0 -- -- 64
2019-10-20 12:00:00 12.4 15 Sudoeste 33 Sudoeste 0 -- -- 66
2019-10-20 11:00:00 11 15 Sudoeste 28 Sudoeste 0 -- -- 75
2019-10-20 10:00:00 10.3 13 Oeste 27 Oeste 0 -- -- 83
2019-10-20 09:00:00 10.3 15 Oeste 28 Oeste 0 -- -- 84
2019-10-20 08:00:00 11.1 7 Oeste 19 Sudoeste 0 -- -- 86
2019-10-20 07:00:00 11.1 15 Sudoeste 32 Sudoeste 0 -- -- 85
2019-10-20 06:00:00 11.4 15 Sudoeste 30 Sudoeste 0 -- -- 87
2019-10-20 05:00:00 11.9 16 Sudoeste 36 Sudoeste 0 -- -- 86
2019-10-20 04:00:00 12.4 16 Sudoeste 33 Sudoeste 0.4 -- -- 88
2019-10-20 03:00:00 13.3 21 Sudoeste 33 Sudoeste 0.6 -- -- 86
2019-10-20 02:00:00 13.3 14 Sudoeste 53 Sur 3 -- -- 89
2019-10-20 01:00:00 14.4 9 Sudoeste 26 Sudoeste 2.4 -- -- 88
2019-10-20 00:00:00 15 13 Sudoeste 31 Sur 0 -- -- 78
2019-10-19 23:00:00 17.2 15 Sudoeste 36 Sur 0 -- -- 61
2019-10-19 22:00:00 17.5 23 Sudoeste 35 Sur 0 -- -- 56
2019-10-19 21:00:00 15.9 3 Este 14 Sudoeste 0 -- -- 59
2019-10-19 20:00:00 17.4 10 Sudoeste 31 Sudoeste 0 -- -- 54
2019-10-19 19:00:00 19.6 22 Sudoeste 40 Sudoeste 0 -- -- 48
2019-10-19 18:00:00 20.4 22 Sudoeste 40 Sudoeste 0 -- -- 44
2019-10-19 17:00:00 20.5 26 Sudoeste 43 Sudoeste 0 -- -- 46
2019-10-19 16:00:00 20.1 25 Sudoeste 39 Sudoeste 0 -- -- 52
2019-10-19 15:00:00 18.9 14 Sudoeste 23 Sudoeste 0 -- -- 60
2019-10-19 14:00:00 16.7 11 Sudoeste 27 Oeste 0 -- -- 71
2019-10-19 13:00:00 16.6 16 Oeste 27 Noroeste 0 -- -- 68
2019-10-19 12:00:00 16.3 12 Oeste 20 Oeste 0 -- -- 70
2019-10-19 11:00:00 15.1 11 Sudoeste 24 Sudoeste 0 -- -- 76
2019-10-19 10:00:00 13.8 17 Oeste 26 Oeste 0 -- -- 79
2019-10-19 09:00:00 13.9 8 Oeste 17 Oeste 0 -- -- 84
2019-10-19 08:00:00 13.2 7 Sudoeste 19 Sudoeste 0 -- -- 87
2019-10-19 07:00:00 12.8 9 Sudoeste 15 Sudoeste 0 -- -- 90
2019-10-19 06:00:00 12.5 4 Sudoeste 8 Sudoeste 0 -- -- 87
2019-10-19 05:00:00 13.9 4 Oeste 12 Sudoeste 0 -- -- 83
2019-10-19 04:00:00 15.1 6 Sudoeste 12 Sudoeste 0 -- -- 81
2019-10-19 03:00:00 15 7 Sudoeste 15 Sudoeste 0 -- -- 79
2019-10-19 02:00:00 15.9 12 Sudoeste 23 Sudoeste 0 -- -- 75
2019-10-19 01:00:00 16.9 15 Sudoeste 26 Sudoeste 0 -- -- 71
2019-10-19 00:00:00 16.7 14 Sudoeste 21 Sudoeste 0 -- -- 70
2019-10-18 23:00:00 16.4 8 Sudoeste 14 Sudoeste 0 -- -- 68
2019-10-18 22:00:00 17.8 10 Sudoeste 14 Sur 0 -- -- 62
2019-10-18 21:00:00 17.1 4 Sur 12 Sur 0 -- -- 63
2019-10-18 20:00:00 18.5 5 Oeste 23 Sudoeste 0 -- -- 58
2019-10-18 19:00:00 20.9 15 Oeste 32 Oeste 0 -- -- 51
2019-10-18 18:00:00 21.7 21 Oeste 36 Sudoeste 0 -- -- 49
2019-10-18 17:00:00 22.7 17 Sudoeste 35 Sudoeste 0 -- -- 48
2019-10-18 16:00:00 22.4 14 Oeste 31 Sudoeste 0 -- -- 51
2019-10-18 15:00:00 21.2 21 Sudoeste 33 Oeste 0 -- -- 53
2019-10-18 14:00:00 21.8 22 Sudoeste 35 Oeste 0 -- -- 53
2019-10-18 13:00:00 20.3 20 Sudoeste 30 Sudoeste 0 -- -- 58
2019-10-18 12:00:00 19.5 18 Sudoeste 31 Sudoeste 0 -- -- 63
2019-10-18 11:00:00 17.2 15 Sudoeste 23 Sudoeste 0 -- -- 68
2019-10-18 10:00:00 15.8 10 Sudoeste 16 Sudoeste 0 -- -- 67
2019-10-18 09:00:00 14.6 10 Sudoeste 15 Sudoeste 0 -- -- 63
2019-10-18 08:00:00 14.2 8 Sudoeste 13 Sudoeste 0 -- -- 59
2019-10-18 07:00:00 13.8 5 Sudoeste 15 Sudoeste 0 -- -- 57
2019-10-18 06:00:00 13.8 8 Sudoeste 12 Sudoeste 0 -- -- 59
2019-10-18 05:00:00 12.2 3 Sur 8 Sudoeste 0 -- -- 65
2019-10-18 04:00:00 11.6 6 Sur 9 Sur 0 -- -- 70
2019-10-18 03:00:00 11.5 3 Sudeste 5 Sudeste 0 -- -- 71
2019-10-18 02:00:00 11.1 4 Sudeste 6 Sudeste 0 -- -- 72
2019-10-18 01:00:00 12.2 2 Sur 6 Oeste 0 -- -- 71
2019-10-18 00:00:00 12.8 3 Sudoeste 6 Sudoeste 0 -- -- 71
2019-10-17 23:00:00 13.8 0 Calma 9 Sudoeste 0 -- -- 69
2019-10-17 22:00:00 15.7 4 Sudoeste 8 Sudoeste 0 -- -- 62
2019-10-17 21:00:00 16.8 3 Sudoeste 7 Oeste 0 -- -- 58
2019-10-17 20:00:00 17.8 6 Oeste 17 Oeste 0 -- -- 54
2019-10-17 19:00:00 20.6 12 Oeste 23 Oeste 0 -- -- 46
2019-10-17 18:00:00 21.7 12 Sudoeste 27 Oeste 0 -- -- 42
2019-10-17 17:00:00 21.9 15 Oeste 30 Oeste 0 -- -- 40
2019-10-17 16:00:00 21.5 18 Oeste 30 Oeste 0 -- -- 41
2019-10-17 15:00:00 20.4 18 Oeste 31 Oeste 0 -- -- 41
2019-10-17 14:00:00 20.3 17 Sudoeste 33 Oeste 0 -- -- 39
2019-10-17 13:00:00 19 19 Oeste 33 Oeste 0 -- -- 41
2019-10-17 12:00:00 17.4 15 Oeste 26 Oeste 0 -- -- 44
2019-10-17 11:00:00 15.1 11 Oeste 19 Oeste 0 -- -- 47
2019-10-17 10:00:00 11.8 5 Oeste 10 Sudoeste 0 -- -- 57
2019-10-17 09:00:00 6.4 0 Calma 4 Sur 0 -- -- 75
2019-10-17 08:00:00 6 2 Sudoeste 4 Sur 0 -- -- 74
2019-10-17 07:00:00 7.1 0 Calma 9 Sur 0 -- -- 72
2019-10-17 06:00:00 7.5 3 Sudoeste 6 Sudoeste 0 -- -- 70
2019-10-17 05:00:00 7.5 3 Sudoeste 6 Sudoeste 0 -- -- 69
2019-10-17 04:00:00 8 3 Sudoeste 8 Sudoeste 0 -- -- 65
2019-10-17 03:00:00 9 5 Sudoeste 9 Oeste 0 -- -- 60
2019-10-17 02:00:00 9.6 5 Sudoeste 9 Sudoeste 0 -- -- 58
2019-10-17 01:00:00 10.1 6 Sudoeste 9 Sudoeste 0 -- -- 53
2019-10-17 00:00:00 10.4 4 Sudoeste 6 Sudoeste 0 -- -- 53
2019-10-16 23:00:00 11.2 2 Sudoeste 5 Sudoeste 0 -- -- 47
2019-10-16 22:00:00 13.7 4 Sudoeste 11 Noroeste 0 -- -- 40
2019-10-16 21:00:00 15.5 8 Oeste 13 Oeste 0 -- -- 36
2019-10-16 20:00:00 16.5 5 Oeste 15 Oeste 0 -- -- 33
2019-10-16 19:00:00 19 10 Oeste 21 Oeste 0 -- -- 29
2019-10-16 18:00:00 19.8 11 Oeste 22 Sudoeste 0 -- -- 28
2019-10-16 17:00:00 20.3 14 Oeste 22 Oeste 0 -- -- 27
2019-10-16 16:00:00 20.3 12 Sudoeste 26 Oeste 0 -- -- 28
2019-10-16 15:00:00 19.7 10 Oeste 22 Oeste 0 -- -- 30
2019-10-16 14:00:00 18 13 Sudoeste 21 Sudoeste 0 -- -- 35
2019-10-16 13:00:00 17.4 9 Oeste 18 Sudoeste 0 -- -- 40
2019-10-16 12:00:00 17.1 3 Oeste 9 Oeste 0 -- -- 42
2019-10-16 11:00:00 16.4 0 Calma 3 Sudeste 0 -- -- 44
2019-10-16 10:00:00 10.6 0 Calma 4 Este 0 -- -- 62
2019-10-16 09:00:00 4.5 0 Calma 4 Sudeste 0 -- -- 83
2019-10-16 08:00:00 4.4 3 Sudeste 7 Sudeste 0 -- -- 81
2019-10-16 07:00:00 5.2 0 Calma 5 Sur 0 -- -- 78
2019-10-16 06:00:00 5.9 0 Calma 5 Sur 0 -- -- 74
2019-10-16 05:00:00 5.9 2 Sudoeste 5 Sur 0 -- -- 72
2019-10-16 04:00:00 7.1 3 Sudoeste 5 Sudoeste 0 -- -- 69
2019-10-16 03:00:00 7.2 2 Sudoeste 7 Sudoeste 0 -- -- 68
2019-10-16 02:00:00 7.7 3 Sudoeste 9 Sudoeste 0 -- -- 66
2019-10-16 01:00:00 7.8 4 Sudoeste 8 Oeste 0 -- -- 66
2019-10-16 00:00:00 8.4 3 Oeste 6 Sudeste 0 -- -- 66
2019-10-15 23:00:00 8.9 2 Sudeste 5 Sudeste 0 -- -- 64
2019-10-15 22:00:00 10 2 Sudeste 4 Sur 0 -- -- 56
2019-10-15 21:00:00 12 2 Sudeste 6 Sudeste 0 -- -- 45
2019-10-15 20:00:00 13.4 0 Calma 17 Oeste 0 -- -- 40
2019-10-15 19:00:00 16.2 12 Oeste 20 Oeste 0 -- -- 34
2019-10-15 18:00:00 17.3 10 Oeste 21 Oeste 0 -- -- 32
2019-10-15 17:00:00 18.2 11 Oeste 24 Oeste 0 -- -- 31
2019-10-15 16:00:00 18.3 14 Oeste 28 Oeste 0 -- -- 33
2019-10-15 15:00:00 17.6 14 Oeste 25 Oeste 0 -- -- 35
2019-10-15 14:00:00 17.7 12 Noroeste 24 Oeste 0 -- -- 38
2019-10-15 13:00:00 15.8 13 Noroeste 26 Oeste 0 -- -- 43
2019-10-15 12:00:00 13.9 14 Oeste 29 Oeste 0 -- -- 51
2019-10-15 11:00:00 10.7 15 Oeste 25 Sudoeste 0 -- -- 89
2019-10-15 10:00:00 7.9 9 Oeste 18 Sudoeste 0.2 -- -- 94
2019-10-15 09:00:00 7 8 Sudoeste 15 Sudoeste 0 -- -- 94
2019-10-15 08:00:00 6.6 8 Oeste 16 Oeste 0 -- -- 93
2019-10-15 07:00:00 7.1 12 Oeste 21 Oeste 0 -- -- 92
2019-10-15 06:00:00 7.7 12 Oeste 18 Sudoeste 0 -- -- 92
2019-10-15 05:00:00 8.2 11 Oeste 20 Oeste 0 -- -- 91
2019-10-15 04:00:00 8.8 14 Oeste 24 Sudoeste 0 -- -- 90
2019-10-15 03:00:00 9.3 13 Oeste 21 Sudoeste 0 -- -- 88
2019-10-15 02:00:00 9.3 9 Sudoeste 19 Sudoeste 0 -- -- 86
2019-10-15 01:00:00 9.9 12 Oeste 22 Oeste 0 -- -- 86
2019-10-15 00:00:00 11 14 Sudoeste 24 Oeste 0 -- -- 82